createdAt,value
2022-12-22T00:00:07.253Z,41.45
2022-12-22T00:02:58.971Z,30.58
2022-12-22T00:05:45.006Z,37.78
2022-12-22T00:08:31.388Z,36.28
2022-12-22T00:11:18.975Z,29.10
2022-12-22T00:14:05.250Z,33.40
2022-12-22T00:16:54.606Z,32.38
2022-12-22T00:19:41.240Z,36.58
2022-12-22T00:22:38.634Z,31.88
2022-12-22T00:25:25.633Z,32.50
2022-12-22T00:28:11.612Z,34.40
2022-12-22T00:30:57.749Z,34.95
2022-12-22T00:33:43.806Z,30.77
2022-12-22T00:36:31.576Z,33.17
2022-12-22T00:39:17.536Z,33.20
2022-12-22T00:42:03.917Z,29.13
2022-12-22T00:44:50.097Z,37.97
2022-12-22T00:47:53.962Z,25.40
2022-12-22T00:50:46.475Z,28.90
2022-12-22T00:53:33.032Z,31.08
2022-12-22T00:56:19.310Z,35.08
2022-12-22T00:59:05.648Z,39.75
2022-12-22T01:01:52.124Z,29.58
2022-12-22T01:04:38.197Z,37.15
2022-12-22T01:07:23.994Z,40.05
2022-12-22T01:10:11.680Z,38.42
2022-12-22T01:12:59.957Z,32.33
2022-12-22T01:15:47.560Z,42.58
2022-12-22T01:18:34.306Z,34.78
2022-12-22T01:21:20.517Z,40.05
2022-12-22T01:24:06.687Z,41.55
2022-12-22T01:26:52.984Z,43.13
2022-12-22T01:29:39.266Z,43.00
2022-12-22T01:32:27.986Z,48.90
2022-12-22T01:35:14.175Z,41.92
2022-12-22T01:38:00.575Z,32.42
2022-12-22T01:40:47.142Z,44.85
2022-12-22T01:43:45.117Z,31.48
2022-12-22T01:46:45.179Z,37.55
2022-12-22T01:49:37.636Z,41.67
2022-12-22T01:52:25.247Z,41.88
2022-12-22T01:55:12.563Z,38.60
2022-12-22T01:57:58.757Z,37.47
2022-12-22T02:00:45.079Z,47.55
2022-12-22T02:03:39.265Z,52.92
2022-12-22T02:07:00.790Z,39.22
2022-12-22T02:10:08.421Z,38.97
2022-12-22T02:13:17.976Z,47.10
2022-12-22T02:16:08.484Z,41.75
2022-12-22T02:19:08.393Z,44.95
2022-12-22T02:22:22.877Z,46.13
2022-12-22T02:25:18.480Z,50.60
2022-12-22T02:28:08.215Z,41.28
2022-12-22T02:30:55.618Z,44.45
2022-12-22T02:33:42.658Z,52.75
2022-12-22T02:39:35.572Z,40.63
2022-12-22T02:42:24.415Z,55.35
2022-12-22T02:45:19.698Z,44.50
2022-12-22T02:48:33.947Z,48.60
2022-12-22T02:51:25.760Z,45.03
2022-12-22T02:54:13.880Z,52.53
2022-12-22T02:57:00.250Z,47.55
2022-12-22T02:59:46.374Z,52.78
2022-12-22T03:02:32.710Z,48.60
2022-12-22T03:05:18.830Z,61.95
2022-12-22T03:08:08.519Z,47.38
2022-12-22T03:10:54.740Z,45.00
2022-12-22T03:13:40.830Z,49.70
2022-12-22T03:16:26.657Z,53.38
2022-12-22T03:19:12.783Z,48.63
2022-12-22T03:21:59.611Z,48.13
2022-12-22T03:24:45.652Z,48.13
2022-12-22T03:27:13.201Z,55.70
2022-12-22T03:29:40.760Z,51.92
2022-12-22T03:32:08.248Z,46.67
2022-12-22T03:34:35.752Z,50.25
2022-12-22T03:37:03.312Z,42.35
2022-12-22T03:39:30.720Z,43.67
2022-12-22T03:42:17.026Z,46.13
2022-12-22T03:45:03.397Z,44.70
2022-12-22T03:47:32.311Z,49.08
2022-12-22T03:49:59.788Z,48.17
2022-12-22T03:52:27.330Z,46.05
2022-12-22T03:54:54.851Z,41.60
2022-12-22T03:57:22.393Z,43.42
2022-12-22T03:59:49.799Z,48.13
2022-12-22T04:02:17.420Z,45.08
2022-12-22T04:04:44.844Z,41.72
2022-12-22T04:09:59.536Z,46.28
2022-12-22T04:12:45.508Z,47.22
2022-12-22T04:15:13.020Z,54.47
2022-12-22T04:17:40.492Z,54.00
2022-12-22T04:20:08.870Z,49.42
2022-12-22T04:22:36.272Z,47.85
2022-12-22T04:25:04.479Z,54.80
2022-12-22T04:27:31.933Z,48.80
2022-12-22T04:29:59.512Z,44.55
2022-12-22T04:32:27.099Z,52.55
2022-12-22T04:34:54.615Z,51.28
2022-12-22T04:37:22.034Z,45.10
2022-12-22T04:39:49.499Z,39.85
2022-12-22T04:44:44.258Z,58.72
2022-12-22T04:47:11.745Z,47.10
2022-12-22T04:49:39.240Z,45.15
2022-12-22T04:52:06.701Z,52.75
2022-12-22T04:54:34.288Z,64.97
2022-12-22T04:57:01.671Z,46.13
2022-12-22T05:01:56.655Z,46.28
2022-12-22T05:04:24.283Z,46.90
2022-12-22T05:06:51.712Z,44.38
2022-12-22T05:09:19.163Z,57.22
2022-12-22T05:14:13.921Z,54.25
2022-12-22T05:16:41.437Z,51.83
2022-12-22T05:19:09.092Z,51.20
2022-12-22T05:21:36.549Z,57.13
2022-12-22T05:24:04.399Z,44.83
2022-12-22T05:26:31.841Z,44.90
2022-12-22T05:28:59.779Z,55.22
2022-12-22T05:31:27.450Z,41.65
2022-12-22T05:33:54.990Z,47.85
2022-12-22T05:36:22.433Z,52.42
2022-12-22T05:38:49.941Z,49.90
2022-12-22T05:41:17.316Z,62.03
2022-12-22T05:43:44.884Z,47.63
2022-12-22T05:46:12.637Z,45.95
2022-12-22T05:48:40.524Z,53.83
2022-12-22T05:51:09.196Z,61.92
2022-12-22T05:53:38.048Z,50.38
2022-12-22T05:56:06.210Z,44.30
2022-12-22T05:58:35.160Z,54.47
2022-12-22T06:01:02.749Z,51.15
2022-12-22T06:03:31.303Z,52.70
2022-12-22T06:05:59.810Z,52.22
2022-12-22T06:08:27.724Z,49.85
2022-12-22T06:10:57.063Z,52.05
2022-12-22T06:13:25.887Z,49.42
2022-12-22T06:15:53.451Z,48.28
2022-12-22T06:18:21.320Z,47.55
2022-12-22T06:20:51.834Z,47.08
2022-12-22T06:23:19.687Z,47.28
2022-12-22T06:26:07.361Z,50.85
2022-12-22T06:28:34.789Z,63.55
2022-12-22T06:33:29.833Z,47.05
2022-12-22T06:35:59.500Z,42.00
2022-12-22T06:38:28.435Z,45.08
2022-12-22T06:40:56.629Z,41.78
2022-12-22T06:43:24.357Z,36.55
2022-12-22T06:45:51.990Z,52.25
2022-12-22T06:48:20.857Z,46.95
2022-12-22T06:50:48.292Z,46.83
2022-12-22T06:53:16.466Z,45.75
2022-12-22T06:55:44.095Z,51.08
2022-12-22T06:58:11.521Z,41.40
2022-12-22T07:03:06.380Z,35.53
2022-12-22T07:05:34.200Z,45.38
2022-12-22T07:08:08.120Z,50.47
2022-12-22T07:10:55.286Z,47.88
2022-12-22T07:13:24.367Z,51.28
2022-12-22T07:16:00.213Z,51.50
2022-12-22T07:18:31.123Z,39.30
2022-12-22T07:21:01.087Z,42.53
2022-12-22T07:23:29.230Z,45.95
2022-12-22T07:25:57.298Z,45.13
2022-12-22T07:28:25.288Z,42.10
2022-12-22T07:30:53.655Z,43.88
2022-12-22T07:33:21.663Z,46.58
2022-12-22T07:35:49.454Z,51.40
2022-12-22T07:38:16.861Z,47.33
2022-12-22T07:43:19.010Z,46.35
2022-12-22T07:45:46.556Z,48.30
2022-12-22T07:48:32.786Z,45.22
2022-12-22T07:51:05.533Z,42.47
2022-12-22T07:53:34.490Z,48.85
2022-12-22T07:56:03.546Z,58.83
2022-12-22T07:58:31.331Z,47.50
2022-12-22T08:01:01.913Z,47.30
2022-12-22T08:03:29.671Z,55.70
2022-12-22T08:05:57.107Z,49.00
2022-12-22T08:08:24.729Z,44.13
2022-12-22T08:10:52.134Z,54.13
2022-12-22T08:13:20.569Z,47.97
2022-12-22T08:15:48.196Z,44.97
2022-12-22T08:18:15.887Z,52.63
2022-12-22T08:20:49.856Z,49.17
2022-12-22T08:23:17.558Z,47.50
2022-12-22T08:25:48.844Z,45.28
2022-12-22T08:28:18.033Z,45.78
2022-12-22T08:30:46.281Z,49.30
2022-12-22T08:33:14.252Z,52.85
2022-12-22T08:35:42.378Z,49.60
2022-12-22T08:38:12.015Z,46.60
2022-12-22T08:40:39.442Z,50.72
2022-12-22T08:43:10.420Z,54.88
2022-12-22T08:45:38.139Z,48.13
2022-12-22T08:48:05.707Z,36.63
2022-12-22T08:50:33.243Z,49.60
2022-12-22T08:53:14.557Z,49.38
2022-12-22T08:55:56.002Z,52.92
2022-12-22T08:58:23.723Z,54.63
2022-12-22T09:00:51.317Z,48.70
2022-12-22T09:03:18.899Z,52.38
2022-12-22T09:05:46.422Z,42.45
2022-12-22T09:10:43.527Z,45.85
2022-12-22T09:13:11.086Z,49.67
2022-12-22T09:15:38.702Z,41.88
2022-12-22T09:18:06.221Z,50.33
2022-12-22T09:20:33.781Z,45.45
2022-12-22T09:23:01.203Z,40.53
2022-12-22T09:25:28.897Z,44.65
2022-12-22T09:27:56.379Z,42.58
2022-12-22T09:30:24.010Z,42.80
2022-12-22T09:32:51.625Z,44.67
2022-12-22T09:35:19.073Z,41.83
2022-12-22T09:40:14.277Z,41.80
2022-12-22T09:42:41.981Z,45.85
2022-12-22T09:45:20.400Z,44.90
2022-12-22T09:47:53.898Z,45.67
2022-12-22T09:50:26.818Z,42.72
2022-12-22T09:53:02.978Z,43.60
2022-12-22T09:55:41.553Z,49.53
2022-12-22T09:58:30.895Z,40.65
2022-12-22T10:01:23.194Z,44.65
2022-12-22T10:04:05.757Z,49.40
2022-12-22T10:06:59.176Z,49.22
2022-12-22T10:09:49.553Z,44.35
2022-12-22T10:12:20.601Z,55.55
2022-12-22T10:14:50.362Z,45.55
2022-12-22T10:17:33.526Z,47.28
2022-12-22T10:20:21.205Z,51.60
2022-12-22T10:22:50.299Z,51.03
2022-12-22T10:25:39.896Z,46.00
2022-12-22T10:28:22.416Z,45.40
2022-12-22T10:30:50.359Z,46.17
2022-12-22T10:33:19.011Z,43.65
2022-12-22T10:35:50.198Z,48.38
2022-12-22T10:38:38.559Z,43.70
2022-12-22T10:41:19.591Z,51.50
2022-12-22T10:44:21.400Z,47.13
2022-12-22T10:47:17.594Z,52.03
2022-12-22T10:49:48.408Z,49.78
2022-12-22T10:52:30.004Z,46.08
2022-12-22T10:55:25.922Z,45.90
2022-12-22T10:58:09.721Z,46.63
2022-12-22T11:00:38.960Z,43.08
2022-12-22T11:03:12.008Z,42.90
2022-12-22T11:05:39.920Z,42.75
2022-12-22T11:08:18.744Z,53.08
2022-12-22T11:11:10.248Z,37.35
2022-12-22T11:13:53.295Z,44.97
2022-12-22T11:16:36.252Z,40.33
2022-12-22T11:19:37.716Z,41.95
2022-12-22T11:22:31.533Z,34.78
2022-12-22T11:25:11.037Z,32.83
2022-12-22T11:27:55.949Z,30.92
2022-12-22T11:30:45.379Z,41.75
2022-12-22T11:33:25.099Z,34.20
2022-12-22T11:36:01.265Z,32.97
2022-12-22T11:38:40.807Z,29.67
2022-12-22T11:41:33.105Z,33.60
2022-12-22T11:44:11.657Z,29.90
2022-12-22T11:46:49.380Z,25.58
2022-12-22T11:49:53.970Z,23.98
2022-12-22T11:52:52.731Z,25.10
2022-12-22T11:56:01.778Z,23.27
2022-12-22T11:58:42.446Z,17.00
2022-12-22T12:01:31.644Z,22.27
2022-12-22T12:04:13.583Z,21.17
2022-12-22T12:06:53.184Z,15.18
2022-12-22T12:09:46.565Z,14.25
2022-12-22T12:12:35.571Z,10.82
2022-12-22T12:15:11.978Z,12.13
2022-12-22T12:18:01.143Z,11.25
2022-12-22T12:20:49.887Z,11.45
2022-12-22T12:23:37.359Z,8.30
2022-12-22T12:26:15.948Z,8.05
2022-12-22T12:29:05.869Z,9.32
2022-12-22T12:31:53.727Z,8.55
2022-12-22T12:34:23.030Z,9.70
2022-12-22T12:37:02.016Z,7.32
2022-12-22T12:40:00.956Z,6.07
2022-12-22T12:42:38.335Z,5.38
2022-12-22T12:45:32.666Z,6.70
2022-12-22T12:48:22.231Z,7.75
2022-12-22T12:50:54.528Z,5.28
2022-12-22T12:53:26.814Z,4.95
2022-12-22T12:56:06.276Z,2.83
2022-12-22T12:58:40.282Z,5.00
2022-12-22T13:01:29.802Z,3.03
2022-12-22T13:04:05.621Z,4.85
2022-12-22T13:06:53.600Z,1.90
2022-12-22T13:12:34.160Z,5.13
2022-12-22T13:15:02.146Z,3.20
2022-12-22T13:17:52.748Z,3.13
2022-12-22T13:20:31.304Z,4.75
2022-12-22T13:23:01.965Z,4.20
2022-12-22T13:25:58.180Z,2.97
2022-12-22T13:28:27.121Z,1.75
2022-12-22T13:31:20.100Z,4.05
2022-12-22T13:34:03.686Z,2.53
2022-12-22T13:36:31.946Z,1.88
2022-12-22T13:39:12.080Z,3.28
2022-12-22T13:41:41.858Z,1.92
2022-12-22T13:44:29.818Z,2.55
2022-12-22T13:47:03.573Z,1.38
2022-12-22T13:50:06.644Z,3.08
2022-12-22T13:52:21.441Z,2.38
2022-12-22T13:54:49.156Z,1.20
2022-12-22T13:57:22.080Z,2.58
2022-12-22T13:59:51.735Z,1.88
2022-12-22T14:02:21.788Z,2.45
2022-12-22T14:05:08.230Z,1.13
2022-12-22T14:07:36.157Z,2.08
2022-12-22T14:10:07.873Z,2.03
2022-12-22T14:12:42.520Z,1.83
2022-12-22T14:15:18.123Z,4.25
2022-12-22T14:17:52.284Z,2.78
2022-12-22T14:20:40.328Z,1.92
2022-12-22T14:23:31.981Z,1.65
2022-12-22T14:26:01.865Z,4.28
2022-12-22T14:28:42.923Z,1.75
2022-12-22T14:31:13.275Z,4.22
2022-12-22T14:33:55.064Z,1.88
2022-12-22T14:36:23.965Z,2.72
2022-12-22T14:38:57.243Z,2.03
2022-12-22T14:41:43.298Z,2.92
2022-12-22T14:44:22.911Z,1.63
2022-12-22T14:47:12.374Z,1.33
2022-12-22T14:49:47.449Z,2.03
2022-12-22T14:52:45.468Z,1.92
2022-12-22T14:55:34.856Z,5.75
2022-12-22T14:58:05.284Z,2.63
2022-12-22T15:00:34.971Z,4.00
2022-12-22T15:03:27.234Z,2.65
2022-12-22T15:05:55.163Z,1.30
2022-12-22T15:08:43.280Z,0.40
2022-12-22T15:11:13.583Z,2.22
2022-12-22T15:13:41.952Z,1.90
2022-12-22T15:16:15.859Z,3.25
2022-12-22T15:18:44.078Z,0.98
2022-12-22T15:21:17.608Z,3.10
2022-12-22T15:23:45.828Z,1.55
2022-12-22T15:26:13.480Z,4.03
2022-12-22T15:28:41.480Z,1.30
2022-12-22T15:31:16.176Z,1.08
2022-12-22T15:33:45.182Z,1.15
2022-12-22T15:36:14.190Z,13.80
2022-12-22T15:38:42.480Z,4.68
2022-12-22T15:41:09.927Z,1.58
2022-12-22T15:43:57.317Z,1.98
2022-12-22T15:46:25.165Z,3.95
2022-12-22T15:48:53.148Z,1.38
2022-12-22T15:51:24.891Z,3.55
2022-12-22T15:53:53.420Z,4.60
2022-12-22T15:56:24.238Z,8.32
2022-12-22T15:58:52.977Z,3.55
2022-12-22T16:01:20.464Z,4.40
2022-12-22T16:03:48.103Z,4.55
2022-12-22T16:06:17.685Z,4.22
2022-12-22T16:08:53.640Z,4.00
2022-12-22T16:11:21.238Z,5.38
2022-12-22T16:13:50.279Z,8.32
2022-12-22T16:16:18.249Z,2.63
2022-12-22T16:18:45.770Z,1.92
2022-12-22T16:21:20.397Z,3.95
2022-12-22T16:23:50.361Z,3.60
2022-12-22T16:26:20.549Z,4.22
2022-12-22T16:28:48.334Z,1.90
2022-12-22T16:31:22.878Z,5.25
2022-12-22T16:33:50.928Z,4.38
2022-12-22T16:36:18.564Z,5.88
2022-12-22T16:38:47.702Z,4.95
2022-12-22T16:41:33.732Z,6.15
2022-12-22T16:46:46.938Z,5.00
2022-12-22T16:49:24.535Z,5.07
2022-12-22T16:51:55.212Z,5.90
2022-12-22T16:54:22.634Z,3.70
2022-12-22T16:56:51.984Z,6.13
2022-12-22T16:59:19.536Z,4.50
2022-12-22T17:01:57.011Z,3.47
2022-12-22T17:04:28.998Z,2.40
2022-12-22T17:06:59.013Z,3.95
2022-12-22T17:09:33.694Z,6.03
2022-12-22T17:12:01.441Z,5.90
2022-12-22T17:14:33.043Z,4.22
2022-12-22T17:17:00.530Z,4.18
2022-12-22T17:19:28.163Z,6.38
2022-12-22T17:21:59.038Z,4.60
2022-12-22T17:24:28.941Z,4.63
2022-12-22T17:27:05.949Z,3.15
2022-12-22T17:29:35.246Z,5.35
2022-12-22T17:32:02.780Z,5.57
2022-12-22T17:34:31.562Z,5.03
2022-12-22T17:37:00.123Z,4.97
2022-12-22T17:39:27.689Z,6.82
2022-12-22T17:41:57.294Z,4.57
2022-12-22T17:44:26.926Z,3.65
2022-12-22T17:46:54.637Z,5.30
2022-12-22T17:49:22.826Z,10.02
2022-12-22T17:51:50.661Z,5.97
2022-12-22T17:54:23.817Z,7.30
2022-12-22T17:56:52.238Z,4.63
2022-12-22T17:59:19.677Z,4.90
2022-12-22T18:01:47.361Z,5.53
2022-12-22T18:04:15.496Z,6.72
2022-12-22T18:06:43.134Z,7.80
2022-12-22T18:09:21.825Z,8.93
2022-12-22T18:11:49.798Z,3.95
2022-12-22T18:14:18.721Z,5.95
2022-12-22T18:16:46.421Z,5.82
2022-12-22T18:19:14.069Z,7.72
2022-12-22T18:21:41.858Z,5.85
2022-12-22T18:24:16.795Z,6.53
2022-12-22T18:26:44.644Z,4.28
2022-12-22T18:29:16.511Z,6.35
2022-12-22T18:31:44.616Z,5.72
2022-12-22T18:34:12.689Z,5.90
2022-12-22T18:36:42.613Z,13.35
2022-12-22T18:39:18.997Z,8.40
2022-12-22T18:41:46.993Z,6.72
2022-12-22T18:44:18.683Z,5.88
2022-12-22T18:46:46.895Z,8.68
2022-12-22T18:49:14.961Z,7.95
2022-12-22T18:51:44.612Z,4.75
2022-12-22T18:54:31.403Z,9.23
2022-12-22T18:56:59.128Z,7.15
2022-12-22T18:59:28.244Z,10.32
2022-12-22T19:02:04.387Z,8.30
2022-12-22T19:04:32.172Z,6.18
2022-12-22T19:06:59.780Z,8.77
2022-12-22T19:09:27.472Z,10.90
2022-12-22T19:11:55.040Z,10.75
2022-12-22T19:14:22.914Z,6.80
2022-12-22T19:16:50.433Z,10.75
2022-12-22T19:19:19.421Z,12.70
2022-12-22T19:21:48.735Z,7.80
2022-12-22T19:24:16.246Z,6.20
2022-12-22T19:26:43.788Z,10.73
2022-12-22T19:29:13.869Z,10.13
2022-12-22T19:31:43.259Z,10.32
2022-12-22T19:34:18.459Z,8.98
2022-12-22T19:36:46.182Z,8.38
2022-12-22T19:39:13.566Z,9.43
2022-12-22T19:41:48.260Z,11.75
2022-12-22T19:44:28.628Z,12.70
2022-12-22T19:46:59.352Z,16.55
2022-12-22T19:49:27.935Z,10.80
2022-12-22T19:51:56.360Z,16.02
2022-12-22T19:54:24.337Z,17.10
2022-12-22T19:56:55.599Z,13.95
2022-12-22T19:59:38.492Z,21.10
2022-12-22T20:02:36.208Z,11.05
2022-12-22T20:05:05.678Z,13.05
2022-12-22T20:07:37.226Z,15.05
2022-12-22T20:10:05.395Z,17.33
2022-12-22T20:12:35.957Z,12.90
2022-12-22T20:15:14.370Z,12.73
2022-12-22T20:17:42.753Z,12.60
2022-12-22T20:20:14.884Z,10.75
2022-12-22T20:22:52.344Z,13.38
2022-12-22T20:25:23.079Z,15.93
2022-12-22T20:27:51.752Z,18.65
2022-12-22T20:30:25.410Z,17.67
2022-12-22T20:32:54.592Z,11.60
2022-12-22T20:35:23.484Z,17.20
2022-12-22T20:37:51.019Z,26.95
2022-12-22T20:40:24.116Z,18.10
2022-12-22T20:42:51.738Z,17.02
2022-12-22T20:45:21.900Z,16.67
2022-12-22T20:47:50.625Z,14.15
2022-12-22T20:50:27.683Z,14.27
2022-12-22T20:55:26.532Z,16.17
2022-12-22T20:57:54.582Z,16.55
2022-12-22T21:00:28.684Z,19.27
2022-12-22T21:02:56.785Z,22.52
2022-12-22T21:05:24.363Z,19.92
2022-12-22T21:07:51.872Z,17.27
2022-12-22T21:10:26.078Z,20.20
2022-12-22T21:12:54.320Z,17.02
2022-12-22T21:15:28.311Z,23.35
2022-12-22T21:17:58.449Z,22.17
2022-12-22T21:20:29.331Z,22.02
2022-12-22T21:22:57.066Z,19.40
2022-12-22T21:25:25.089Z,17.83
2022-12-22T21:27:53.016Z,19.63
2022-12-22T21:30:26.512Z,21.35
2022-12-22T21:32:54.767Z,24.98
2022-12-22T21:35:27.283Z,22.73
2022-12-22T21:37:56.029Z,22.55
2022-12-22T21:40:25.993Z,23.27
2022-12-22T21:42:54.353Z,25.58
2022-12-22T21:45:25.683Z,25.05
2022-12-22T21:47:53.297Z,25.10
2022-12-22T21:50:27.484Z,23.80
2022-12-22T21:52:55.206Z,23.55
2022-12-22T21:55:35.013Z,24.30
2022-12-22T21:58:04.209Z,20.13
2022-12-22T22:00:32.840Z,20.20
2022-12-22T22:03:02.472Z,18.30
2022-12-22T22:05:36.134Z,22.65
2022-12-22T22:08:06.481Z,18.73
2022-12-22T22:10:36.883Z,16.23
2022-12-22T22:13:04.708Z,14.38
2022-12-22T22:15:32.335Z,17.13
2022-12-22T22:18:06.438Z,16.48
2022-12-22T22:20:35.251Z,15.38
2022-12-22T22:23:02.657Z,18.58
2022-12-22T22:25:30.177Z,18.90
2022-12-22T22:28:00.755Z,17.75
2022-12-22T22:30:28.334Z,18.70
2022-12-22T22:32:57.098Z,14.93
2022-12-22T22:35:27.031Z,19.23
2022-12-22T22:37:55.167Z,19.27
2022-12-22T22:40:23.590Z,12.80
2022-12-22T22:42:51.269Z,11.00
2022-12-22T22:45:24.099Z,11.25
2022-12-22T22:47:53.013Z,10.75
2022-12-22T22:50:22.082Z,10.82
2022-12-22T22:52:49.675Z,9.48
2022-12-22T22:55:17.341Z,6.55
2022-12-22T22:57:44.821Z,10.82
2022-12-22T23:00:15.742Z,11.05
2022-12-22T23:02:43.662Z,8.60
2022-12-22T23:05:15.504Z,8.15
2022-12-22T23:07:48.120Z,7.95
2022-12-22T23:10:15.794Z,9.77
2022-12-22T23:12:43.495Z,8.90
2022-12-22T23:15:11.331Z,4.55
2022-12-22T23:17:39.179Z,5.28
2022-12-22T23:20:07.268Z,4.85
2022-12-22T23:22:35.683Z,5.28
2022-12-22T23:25:03.420Z,5.20
2022-12-22T23:27:32.303Z,4.35
2022-12-22T23:29:59.793Z,6.80
2022-12-22T23:32:27.291Z,7.57
2022-12-22T23:34:54.767Z,4.25
2022-12-22T23:37:22.236Z,3.22
2022-12-22T23:39:49.642Z,2.72
2022-12-22T23:42:17.272Z,5.22
2022-12-22T23:44:44.694Z,5.20
2022-12-22T23:47:12.409Z,5.10
2022-12-22T23:49:39.823Z,5.00
2022-12-22T23:52:07.340Z,3.55
2022-12-22T23:54:34.960Z,4.53
2022-12-22T23:57:02.424Z,4.28
